aviador You're here:

UKBB Decoded Metar

KIEV in UKRAINE
Report Time2017-08-19 01:30:00
UTC Time2017-08-19 01:51:48
Flight Rules vfr VFR
WindVRB at 2 kt
Visibility9999 m
Phenomena:N/A
Clouds:N/A
Expected CloudBase > 800 ft AGL from Temp-Dew spread
CeilingNone
Temp14°C (ISA -0)
Dew Point12°C (88% RH)
AAT13.9°C
QNH1019 hPa
Density Alt351 ft
Elevation390 ft
Report Wrong Elevation
Raw Report
UKBB 190130Z VRB01MPS CAVOK 14/12 Q1019 R88/CLRD// NOSIG=

Extra information for UKBB:More info

Metar Taf Metar & Taf Last 4 Metars F.Rules Stats Wind Profile Meteogram Temp Stats Airport Information Weather charts Add Link Nearby VenuesMetar ALERT Operation Metar Decoded Social comments